createdAt,value
2018-07-28T00:03:26.057Z,7.60
2018-07-28T00:08:30.192Z,7.65
2018-07-28T00:13:35.772Z,7.30
2018-07-28T00:18:40.197Z,7.10
2018-07-28T00:23:46.631Z,7.08
2018-07-28T00:28:50.429Z,6.60
2018-07-28T00:33:53.774Z,6.90
2018-07-28T00:38:57.176Z,7.50
2018-07-28T00:44:00.615Z,7.28
2018-07-28T00:49:05.930Z,7.50
2018-07-28T00:54:09.393Z,8.00
2018-07-28T00:59:12.910Z,7.60
2018-07-28T01:04:16.368Z,7.90
2018-07-28T01:09:19.795Z,7.10
2018-07-28T01:14:23.333Z,7.00
2018-07-28T01:19:27.890Z,7.42
2018-07-28T01:24:32.180Z,7.83
2018-07-28T01:29:35.532Z,7.20
2018-07-28T01:34:39.013Z,7.50
2018-07-28T01:39:42.486Z,7.40
2018-07-28T01:44:48.428Z,8.08
2018-07-28T01:49:51.977Z,8.15
2018-07-28T01:54:55.605Z,8.53
2018-07-28T01:59:59.116Z,8.70
2018-07-28T02:05:02.676Z,8.53
2018-07-28T02:10:07.597Z,8.15
2018-07-28T02:15:12.893Z,9.40
2018-07-28T02:20:18.033Z,8.60
2018-07-28T02:25:21.700Z,8.30
2018-07-28T02:30:25.699Z,9.25
2018-07-28T02:35:29.159Z,9.00
2018-07-28T02:40:32.631Z,8.13
2018-07-28T02:45:38.397Z,8.85
2018-07-28T02:50:41.907Z,9.17
2018-07-28T02:55:48.417Z,9.70
2018-07-28T03:00:51.872Z,8.83
2018-07-28T03:05:55.380Z,9.08
2018-07-28T03:10:58.991Z,8.70
2018-07-28T03:16:02.554Z,9.00
2018-07-28T03:21:05.984Z,9.45
2018-07-28T03:26:09.502Z,9.40
2018-07-28T03:31:15.019Z,9.38
2018-07-28T03:36:18.892Z,9.30
2018-07-28T03:41:28.318Z,9.38
2018-07-28T03:46:33.044Z,9.50
2018-07-28T03:51:43.744Z,9.60
2018-07-28T03:56:48.169Z,9.80
2018-07-28T04:01:52.244Z,9.83
2018-07-28T04:06:55.615Z,9.50
2018-07-28T04:11:59.011Z,9.40
2018-07-28T04:17:08.071Z,9.60
2018-07-28T04:22:12.065Z,9.73
2018-07-28T04:49:31.753Z,9.70
2018-07-28T04:54:36.280Z,10.38
2018-07-28T04:59:49.834Z,10.80
2018-07-28T05:10:47.406Z,9.40
2018-07-28T05:15:55.335Z,9.50
2018-07-28T05:20:58.941Z,9.28
2018-07-28T05:26:03.770Z,8.93
2018-07-28T05:31:07.946Z,9.47
2018-07-28T05:36:11.453Z,8.80
2018-07-28T05:41:14.888Z,8.75
2018-07-28T05:46:18.276Z,8.60
2018-07-28T05:51:21.640Z,8.78
2018-07-28T05:56:24.694Z,8.00
2018-07-28T06:01:28.062Z,7.70
2018-07-28T06:06:31.451Z,7.57
2018-07-28T06:11:34.968Z,7.30
2018-07-28T06:16:38.701Z,7.30
2018-07-28T06:21:42.205Z,6.40
2018-07-28T06:26:45.610Z,7.03
2018-07-28T06:31:49.912Z,6.90
2018-07-28T06:36:53.349Z,7.10
2018-07-28T06:41:56.883Z,6.93
2018-07-28T06:47:01.145Z,6.57
2018-07-28T06:52:08.951Z,6.70
2018-07-28T06:57:22.237Z,6.75
2018-07-28T07:02:36.440Z,6.28
2018-07-28T07:07:40.184Z,6.28
2018-07-28T07:12:55.439Z,6.20
2018-07-28T07:18:05.351Z,6.28
2018-07-28T07:23:13.549Z,6.30
2018-07-28T07:28:17.199Z,6.70
2018-07-28T07:33:20.874Z,6.92
2018-07-28T07:38:24.310Z,7.60
2018-07-28T07:43:27.719Z,7.53
2018-07-28T07:48:31.252Z,8.08
2018-07-28T07:53:34.755Z,7.10
2018-07-28T07:58:38.167Z,7.15
2018-07-28T08:03:41.628Z,6.90
2018-07-28T08:08:45.071Z,6.97
2018-07-28T08:13:48.706Z,7.15
2018-07-28T08:18:53.582Z,6.72
2018-07-28T08:24:01.034Z,6.80
2018-07-28T08:29:04.696Z,6.30
2018-07-28T08:34:09.111Z,6.33
2018-07-28T08:39:14.116Z,5.70
2018-07-28T08:44:17.555Z,5.55
2018-07-28T08:49:21.268Z,5.30
2018-07-28T08:54:25.611Z,5.10
2018-07-28T08:59:29.077Z,5.15
2018-07-28T09:04:32.588Z,5.60
2018-07-28T09:09:36.051Z,5.30
2018-07-28T09:14:39.503Z,5.17
2018-07-28T09:19:43.057Z,4.53
2018-07-28T09:24:46.480Z,5.70
2018-07-28T09:29:50.001Z,5.58
2018-07-28T09:34:55.561Z,5.30
2018-07-28T09:39:59.102Z,5.40
2018-07-28T09:45:02.565Z,5.50
2018-07-28T09:50:06.361Z,5.50
2018-07-28T09:55:09.784Z,5.70
2018-07-28T10:00:18.385Z,6.20
2018-07-28T10:05:21.828Z,5.60
2018-07-28T10:10:25.272Z,5.70
2018-07-28T10:15:28.799Z,5.70
2018-07-28T10:20:32.346Z,5.70
2018-07-28T10:25:36.217Z,5.40
2018-07-28T10:30:47.047Z,5.90
2018-07-28T10:35:50.306Z,5.20
2018-07-28T10:40:53.747Z,6.05
2018-07-28T10:45:57.350Z,5.93
2018-07-28T10:51:00.955Z,5.40
2018-07-28T10:56:04.770Z,5.30
2018-07-28T11:01:09.283Z,5.30
2018-07-28T11:06:12.779Z,5.10
2018-07-28T11:11:16.172Z,5.08
2018-07-28T11:16:19.652Z,5.20
2018-07-28T11:21:23.204Z,5.47
2018-07-28T11:26:28.820Z,5.58
2018-07-28T11:31:43.628Z,5.58
2018-07-28T11:37:00.477Z,4.33
2018-07-28T11:42:16.115Z,4.62
2018-07-28T11:47:19.244Z,4.50
2018-07-28T11:52:22.702Z,4.67
2018-07-28T11:57:26.227Z,4.00
2018-07-28T12:02:29.842Z,4.40
2018-07-28T12:07:33.431Z,4.20
2018-07-28T12:12:49.106Z,4.70
2018-07-28T12:17:55.712Z,4.60
2018-07-28T12:22:59.094Z,3.92
2018-07-28T12:28:02.862Z,4.10
2018-07-28T12:33:06.200Z,3.50
2018-07-28T12:38:09.680Z,3.92
2018-07-28T12:43:13.113Z,3.37
2018-07-28T12:48:21.455Z,3.33
2018-07-28T12:53:24.932Z,3.50
2018-07-28T12:58:28.327Z,3.52
2018-07-28T13:03:31.759Z,2.90
2018-07-28T13:08:40.155Z,3.30
2018-07-28T13:13:43.597Z,2.90
2018-07-28T13:18:47.059Z,3.20
2018-07-28T13:23:50.468Z,3.37
2018-07-28T13:28:53.811Z,3.40
2018-07-28T13:33:57.245Z,3.20
2018-07-28T13:39:00.813Z,3.40
2018-07-28T13:44:04.415Z,3.60
2018-07-28T13:49:07.819Z,3.30
2018-07-28T13:54:11.532Z,3.30
2018-07-28T13:59:18.382Z,3.40
2018-07-28T14:04:21.852Z,3.70
2018-07-28T14:09:27.090Z,3.40
2018-07-28T14:14:30.555Z,3.60
2018-07-28T14:19:34.030Z,5.30
2018-07-28T14:24:37.540Z,4.85
2018-07-28T14:29:42.066Z,6.20
2018-07-28T14:34:45.784Z,9.15
2018-07-28T14:39:49.322Z,11.90
2018-07-28T14:45:02.625Z,10.60
2018-07-28T14:50:07.479Z,9.03
2018-07-28T14:55:12.453Z,10.40
2018-07-28T15:00:17.188Z,9.80
2018-07-28T15:05:21.702Z,8.70
2018-07-28T15:10:25.328Z,9.30
2018-07-28T15:15:29.145Z,8.50
2018-07-28T15:20:32.855Z,9.90
2018-07-28T15:25:36.776Z,8.55
2018-07-28T15:30:40.345Z,8.65
2018-07-28T15:35:44.052Z,8.95
2018-07-28T15:40:54.688Z,9.10
2018-07-28T15:57:20.641Z,7.40
2018-07-28T16:02:32.115Z,7.40
2018-07-28T16:18:59.158Z,7.35
2018-07-28T16:57:51.336Z,8.73
2018-07-28T17:02:54.797Z,8.38
2018-07-28T17:07:58.541Z,7.80
2018-07-28T17:13:02.141Z,8.58
2018-07-28T17:18:05.704Z,9.40
2018-07-28T17:23:09.175Z,8.20
2018-07-28T17:28:12.638Z,9.08
2018-07-28T17:33:16.095Z,9.60
2018-07-28T17:38:20.648Z,8.90
2018-07-28T17:43:24.078Z,7.60
2018-07-28T17:48:27.627Z,8.03
2018-07-28T17:53:30.948Z,8.60
2018-07-28T17:58:34.425Z,8.43
2018-07-28T18:03:38.031Z,8.97
2018-07-28T18:08:41.416Z,8.95
2018-07-28T18:13:45.114Z,8.50
2018-07-28T18:18:48.612Z,8.78
2018-07-28T18:23:52.534Z,7.30
2018-07-28T18:28:56.009Z,7.93
2018-07-28T18:33:59.398Z,8.10
2018-07-28T18:39:03.459Z,8.70
2018-07-28T18:44:07.267Z,8.00
2018-07-28T18:54:39.636Z,7.85
2018-07-28T19:05:23.309Z,7.33
2018-07-28T19:10:26.758Z,6.20
2018-07-28T19:15:30.261Z,6.35
2018-07-28T19:20:34.931Z,6.50
2018-07-28T19:25:38.308Z,6.28
2018-07-28T19:30:41.873Z,6.60
2018-07-28T19:35:50.567Z,7.30
2018-07-28T19:40:54.029Z,6.70
2018-07-28T19:45:59.444Z,7.30
2018-07-28T19:51:11.898Z,6.70
2018-07-28T19:56:15.510Z,6.60
2018-07-28T20:01:20.026Z,6.40
2018-07-28T20:06:24.021Z,6.45
2018-07-28T20:11:29.746Z,6.60
2018-07-28T20:16:34.898Z,6.15
2018-07-28T20:21:38.350Z,6.05
2018-07-28T20:26:41.981Z,5.70
2018-07-28T20:31:45.445Z,5.50
2018-07-28T20:36:49.035Z,5.83
2018-07-28T20:41:52.595Z,5.50
2018-07-28T20:46:56.092Z,5.60
2018-07-28T20:52:01.533Z,5.83
2018-07-28T20:57:04.975Z,6.15
2018-07-28T21:02:08.456Z,6.60
2018-07-28T21:07:11.919Z,10.38
2018-07-28T21:12:15.493Z,7.20
2018-07-28T21:17:19.017Z,27.60
2018-07-28T21:22:22.469Z,7.50
2018-07-28T21:27:26.064Z,6.80
2018-07-28T21:32:29.486Z,7.80
2018-07-28T21:37:33.000Z,7.00
2018-07-28T21:42:36.671Z,6.28
2018-07-28T21:47:40.128Z,6.12
2018-07-28T21:52:43.512Z,6.00
2018-07-28T21:57:47.122Z,6.10
2018-07-28T22:02:52.508Z,6.20
2018-07-28T22:07:56.002Z,6.10
2018-07-28T22:12:59.419Z,6.25
2018-07-28T22:18:02.897Z,5.75
2018-07-28T22:23:06.498Z,5.80
2018-07-28T22:28:09.912Z,5.50
2018-07-28T22:33:13.557Z,5.10
2018-07-28T22:38:17.045Z,4.70
2018-07-28T22:48:39.310Z,5.70
2018-07-28T22:53:42.716Z,5.67
2018-07-28T22:58:45.909Z,5.60
2018-07-28T23:03:49.413Z,5.20
2018-07-28T23:08:58.963Z,5.00
2018-07-28T23:14:02.485Z,5.75
2018-07-28T23:19:05.873Z,4.80
2018-07-28T23:24:09.457Z,5.20
2018-07-28T23:29:12.824Z,5.10
2018-07-28T23:34:16.280Z,4.53
2018-07-28T23:39:19.688Z,4.60
2018-07-28T23:44:23.174Z,3.70
2018-07-28T23:49:30.337Z,5.47
2018-07-28T23:54:33.680Z,4.80
2018-07-28T23:59:37.177Z,4.55
